createdAt,value
2016-02-12T00:00:57.084Z,995.31
2016-02-12T00:01:57.054Z,995.32
2016-02-12T00:02:57.042Z,995.29
2016-02-12T00:03:57.013Z,995.34
2016-02-12T00:04:56.985Z,995.3
2016-02-12T00:05:56.957Z,995.31
2016-02-12T00:06:56.943Z,995.3
2016-02-12T00:07:56.931Z,995.31
2016-02-12T00:08:56.888Z,995.31
2016-02-12T00:09:56.874Z,995.32
2016-02-12T00:10:56.837Z,995.29
2016-02-12T00:11:56.826Z,995.3
2016-02-12T00:12:56.799Z,995.3
2016-02-12T00:13:56.770Z,995.28
2016-02-12T00:14:56.742Z,995.3
2016-02-12T00:15:56.728Z,995.29
2016-02-12T00:16:56.701Z,995.28
2016-02-12T00:17:56.687Z,995.28
2016-02-12T00:18:56.659Z,995.23
2016-02-12T00:19:56.632Z,995.22
2016-02-12T00:20:56.602Z,995.25
2016-02-12T00:21:56.590Z,995.21
2016-02-12T00:22:56.561Z,995.17
2016-02-12T00:23:56.538Z,995.21
2016-02-12T00:24:56.482Z,995.19
2016-02-12T00:25:56.456Z,995.21
2016-02-12T00:26:56.416Z,995.18
2016-02-12T00:27:56.376Z,995.17
2016-02-12T00:28:56.353Z,995.19
2016-02-12T00:29:56.321Z,995.15
2016-02-12T00:30:56.304Z,995.16
2016-02-12T00:31:56.256Z,995.17
2016-02-12T00:32:56.238Z,995.16
2016-02-12T00:33:56.208Z,995.13
2016-02-12T00:34:56.194Z,995.18
2016-02-12T00:35:56.164Z,995.13
2016-02-12T00:36:56.138Z,995.19
2016-02-12T00:37:56.107Z,995.14
2016-02-12T00:38:56.078Z,995.2
2016-02-12T00:39:56.063Z,995.18
2016-02-12T00:40:56.035Z,995.16
2016-02-12T00:41:56.005Z,995.17
2016-02-12T00:42:55.989Z,995.18
2016-02-12T00:43:55.976Z,995.2
2016-02-12T00:44:55.963Z,995.17
2016-02-12T00:45:55.904Z,995.18
2016-02-12T00:46:55.890Z,995.15
2016-02-12T00:47:55.861Z,995.19
2016-02-12T00:48:55.832Z,995.17
2016-02-12T00:49:55.820Z,995.13
2016-02-12T00:50:55.807Z,995.11
2016-02-12T00:51:55.762Z,995.1
2016-02-12T00:52:55.734Z,995.14
2016-02-12T00:53:55.721Z,995.11
2016-02-12T00:54:55.693Z,995.12
2016-02-12T00:55:55.681Z,995.08
2016-02-12T00:56:55.652Z,995.09
2016-02-12T00:57:55.623Z,995.12
2016-02-12T00:58:55.611Z,995.09
2016-02-12T00:59:55.582Z,995.12
2016-02-12T01:00:55.554Z,995.12
2016-02-12T01:01:55.526Z,995.16
2016-02-12T01:02:55.505Z,995.13
2016-02-12T01:03:55.477Z,995.12
2016-02-12T01:04:55.448Z,995.1
2016-02-12T01:05:55.435Z,995.09
2016-02-12T01:06:55.407Z,995.07
2016-02-12T01:07:55.378Z,995.1
2016-02-12T01:08:55.365Z,995.09
2016-02-12T01:09:55.337Z,995.11
2016-02-12T01:10:55.309Z,995.08
2016-02-12T01:11:55.282Z,995.07
2016-02-12T01:12:55.257Z,995.1
2016-02-12T01:13:55.244Z,995.1
2016-02-12T01:14:55.216Z,995.08
2016-02-12T01:15:55.202Z,995.08
2016-02-12T01:16:55.158Z,995.08
2016-02-12T01:17:55.145Z,995.03
2016-02-12T01:18:55.117Z,995.02
2016-02-12T01:19:55.089Z,995.03
2016-02-12T01:20:55.076Z,995
2016-02-12T01:21:55.063Z,995.02
2016-02-12T01:22:55.035Z,995.01
2016-02-12T01:23:55.007Z,995
2016-02-12T01:24:54.977Z,994.99
2016-02-12T01:25:54.949Z,995
2016-02-12T01:26:54.935Z,995.05
2016-02-12T01:27:54.907Z,995.02
2016-02-12T01:28:54.879Z,995.02
2016-02-12T01:29:54.851Z,995
2016-02-12T01:30:54.837Z,995.04
2016-02-12T01:31:54.810Z,995.04
2016-02-12T01:32:54.782Z,995.02
2016-02-12T01:33:54.752Z,995.01
2016-02-12T01:34:54.740Z,994.96
2016-02-12T01:35:54.712Z,994.97
2016-02-12T01:36:54.683Z,995.01
2016-02-12T01:37:54.671Z,994.96
2016-02-12T01:38:54.642Z,994.98
2016-02-12T01:39:54.617Z,994.96
2016-02-12T01:40:54.588Z,994.93
2016-02-12T01:41:54.575Z,994.91
2016-02-12T01:42:54.597Z,994.92
2016-02-12T01:43:54.521Z,994.9
2016-02-12T01:44:54.492Z,994.95
2016-02-12T01:45:54.480Z,994.92
2016-02-12T01:46:54.451Z,994.94
2016-02-12T01:47:54.422Z,994.93
2016-02-12T01:48:54.395Z,994.93
2016-02-12T01:49:54.381Z,994.93
2016-02-12T01:50:54.353Z,994.93
2016-02-12T01:51:54.340Z,994.93
2016-02-12T01:52:54.311Z,994.97
2016-02-12T01:53:54.283Z,994.92
2016-02-12T01:54:54.255Z,994.92
2016-02-12T01:55:54.241Z,994.9
2016-02-12T01:56:54.261Z,994.9
2016-02-12T01:57:54.186Z,994.94
2016-02-12T01:58:54.172Z,994.95
2016-02-12T01:59:54.144Z,994.99
2016-02-12T02:00:54.115Z,994.97
2016-02-12T02:01:54.117Z,995
2016-02-12T02:02:54.058Z,994.98
2016-02-12T02:03:54.044Z,995.05
2016-02-12T02:04:54.016Z,995.03
2016-02-12T02:05:53.989Z,995.04
2016-02-12T02:06:53.976Z,995.04
2016-02-12T02:07:53.948Z,995.01
2016-02-12T02:08:53.934Z,994.98
2016-02-12T02:09:53.906Z,995
2016-02-12T02:10:53.878Z,994.99
2016-02-12T02:11:53.848Z,994.97
2016-02-12T02:12:53.821Z,994.93
2016-02-12T02:13:53.810Z,994.92
2016-02-12T02:14:53.781Z,994.94
2016-02-12T02:15:53.752Z,994.94
2016-02-12T02:16:53.739Z,994.93
2016-02-12T02:17:53.710Z,994.94
2016-02-12T02:18:53.682Z,994.95
2016-02-12T02:19:53.654Z,994.96
2016-02-12T02:20:53.641Z,994.88
2016-02-12T02:21:53.612Z,994.91
2016-02-12T02:22:53.584Z,994.86
2016-02-12T02:23:53.571Z,994.88
2016-02-12T02:24:53.635Z,994.93
2016-02-12T02:25:53.513Z,994.86
2016-02-12T02:26:53.485Z,994.85
2016-02-12T02:27:53.472Z,994.84
2016-02-12T02:28:53.443Z,994.85
2016-02-12T02:29:53.415Z,994.81
2016-02-12T02:30:53.402Z,994.79
2016-02-12T02:31:53.373Z,994.82
2016-02-12T02:32:53.345Z,994.81
2016-02-12T02:33:53.348Z,994.82
2016-02-12T02:34:53.303Z,994.82
2016-02-12T02:35:53.272Z,994.82
2016-02-12T02:36:53.244Z,994.83
2016-02-12T02:37:53.231Z,994.8
2016-02-12T02:38:53.202Z,994.77
2016-02-12T02:39:53.174Z,994.81
2016-02-12T02:40:53.146Z,994.8
2016-02-12T02:41:53.148Z,994.82
2016-02-12T02:42:53.108Z,994.8
2016-02-12T02:43:53.080Z,994.8
2016-02-12T02:44:53.051Z,994.77
2016-02-12T02:45:53.038Z,994.82
2016-02-12T02:46:53.010Z,994.81
2016-02-12T02:47:52.981Z,994.8
2016-02-12T02:48:52.954Z,994.79
2016-02-12T02:49:52.942Z,994.79
2016-02-12T02:50:52.913Z,994.78
2016-02-12T02:51:52.885Z,994.79
2016-02-12T02:52:52.872Z,994.8
2016-02-12T02:53:52.875Z,994.8
2016-02-12T02:54:52.815Z,994.77
2016-02-12T02:55:52.788Z,994.76
2016-02-12T02:56:52.774Z,994.76
2016-02-12T02:57:52.745Z,994.75
2016-02-12T02:58:52.717Z,994.7
2016-02-12T02:59:52.690Z,994.69
2016-02-12T03:00:52.677Z,994.64
2016-02-12T03:01:52.664Z,994.65
2016-02-12T03:02:52.620Z,994.65
2016-02-12T03:03:52.607Z,994.62
2016-02-12T03:04:52.844Z,994.61
2016-02-12T03:05:52.550Z,994.62
2016-02-12T03:06:52.522Z,994.62
2016-02-12T03:07:52.508Z,994.6
2016-02-12T03:08:52.482Z,994.63
2016-02-12T03:09:52.454Z,994.57
2016-02-12T03:10:52.440Z,994.53
2016-02-12T03:11:52.417Z,994.61
2016-02-12T03:12:52.388Z,994.58
2016-02-12T03:13:52.359Z,994.56
2016-02-12T03:14:52.332Z,994.55
2016-02-12T03:15:52.319Z,994.56
2016-02-12T03:16:52.290Z,994.53
2016-02-12T03:17:52.263Z,994.56
2016-02-12T03:18:52.250Z,994.54
2016-02-12T03:19:52.222Z,994.55
2016-02-12T03:20:52.193Z,994.57
2016-02-12T03:21:52.164Z,994.52
2016-02-12T03:22:52.152Z,994.55
2016-02-12T03:23:52.122Z,994.52
2016-02-12T03:24:52.110Z,994.55
2016-02-12T03:25:52.082Z,994.53
2016-02-12T03:26:52.052Z,994.54
2016-02-12T03:27:52.025Z,994.55
2016-02-12T03:28:51.996Z,994.52
2016-02-12T03:29:51.982Z,994.48
2016-02-12T03:30:51.954Z,994.49
2016-02-12T03:31:51.926Z,994.48
2016-02-12T03:32:51.912Z,994.51
2016-02-12T03:33:51.884Z,994.48
2016-02-12T03:34:51.857Z,994.49
2016-02-12T03:35:51.828Z,994.49
2016-02-12T03:36:51.815Z,994.46
2016-02-12T03:37:51.787Z,994.46
2016-02-12T03:38:51.759Z,994.44
2016-02-12T03:39:51.746Z,994.45
2016-02-12T03:40:51.749Z,994.39
2016-02-12T03:41:51.689Z,994.37
2016-02-12T03:42:51.664Z,994.36
2016-02-12T03:43:51.636Z,994.36
2016-02-12T03:44:51.623Z,994.36
2016-02-12T03:45:51.595Z,994.35
2016-02-12T03:46:51.581Z,994.34
2016-02-12T03:47:51.553Z,994.33
2016-02-12T03:48:51.523Z,994.3
2016-02-12T03:49:51.495Z,994.34
2016-02-12T03:50:51.482Z,994.33
2016-02-12T03:51:51.454Z,994.33
2016-02-12T03:52:51.425Z,994.3
2016-02-12T03:53:51.397Z,994.34
2016-02-12T03:54:51.384Z,994.31
2016-02-12T03:55:51.356Z,994.29
2016-02-12T03:56:51.328Z,994.31
2016-02-12T03:57:51.298Z,994.31
2016-02-12T03:58:51.286Z,994.3
2016-02-12T03:59:51.258Z,994.29
2016-02-12T04:00:51.228Z,994.28
2016-02-12T04:01:51.216Z,994.29
2016-02-12T04:02:51.187Z,994.34
2016-02-12T04:03:51.159Z,994.34
2016-02-12T04:04:51.131Z,994.33
2016-02-12T04:05:51.117Z,994.34
2016-02-12T04:06:51.089Z,994.33
2016-02-12T04:07:51.061Z,994.31
2016-02-12T04:08:51.032Z,994.29
2016-02-12T04:09:51.019Z,994.3
2016-02-12T04:10:50.991Z,994.32
2016-02-12T04:11:50.968Z,994.34
2016-02-12T04:12:50.939Z,994.35
2016-02-12T04:13:50.926Z,994.34
2016-02-12T04:14:50.898Z,994.35
2016-02-12T04:15:50.870Z,994.36
2016-02-12T04:16:50.841Z,994.34
2016-02-12T04:17:50.829Z,994.4
2016-02-12T04:18:50.800Z,994.35
2016-02-12T04:19:50.772Z,994.37
2016-02-12T04:20:50.745Z,994.37
2016-02-12T04:21:50.732Z,994.37
2016-02-12T04:22:50.703Z,994.35
2016-02-12T04:23:50.675Z,994.39
2016-02-12T04:24:50.661Z,994.41
2016-02-12T04:25:50.633Z,994.37
2016-02-12T04:26:50.605Z,994.37
2016-02-12T04:27:50.576Z,994.39
2016-02-12T04:28:50.565Z,994.38
2016-02-12T04:29:50.536Z,994.38
2016-02-12T04:30:50.509Z,994.38
2016-02-12T04:31:50.495Z,994.38
2016-02-12T04:32:50.466Z,994.38
2016-02-12T04:33:50.438Z,994.38
2016-02-12T04:34:50.409Z,994.38
2016-02-12T04:35:50.397Z,994.36
2016-02-12T04:36:50.368Z,994.33
2016-02-12T04:37:50.340Z,994.33
2016-02-12T04:38:50.312Z,994.33
2016-02-12T04:39:50.299Z,994.29
2016-02-12T04:40:50.273Z,994.28
2016-02-12T04:41:50.244Z,994.28
2016-02-12T04:42:50.232Z,994.25
2016-02-12T04:43:50.203Z,994.25
2016-02-12T04:44:50.174Z,994.23
2016-02-12T04:45:50.162Z,994.23
2016-02-12T04:46:50.135Z,994.25
2016-02-12T04:47:50.355Z,994.24
2016-02-12T04:48:50.078Z,994.21
2016-02-12T04:49:50.049Z,994.2
2016-02-12T04:50:50.036Z,994.2
2016-02-12T04:51:50.008Z,994.16
2016-02-12T04:52:49.980Z,994.16
2016-02-12T04:53:49.966Z,994.18
2016-02-12T04:54:49.938Z,994.14
2016-02-12T04:55:49.909Z,994.13
2016-02-12T04:56:49.881Z,994.15
2016-02-12T04:57:49.868Z,994.1
2016-02-12T04:58:49.838Z,994.1
2016-02-12T04:59:49.826Z,994.1
2016-02-12T05:00:49.798Z,994.08
2016-02-12T05:01:49.769Z,994.08
2016-02-12T05:02:49.741Z,994.03
2016-02-12T05:03:49.727Z,994.03
2016-02-12T05:04:49.699Z,994.02
2016-02-12T05:05:49.687Z,994.03
2016-02-12T05:06:49.644Z,994.02
2016-02-12T05:07:49.630Z,993.99
2016-02-12T05:08:49.601Z,994.03
2016-02-12T05:09:49.573Z,993.98
2016-02-12T05:10:49.544Z,993.96
2016-02-12T05:11:49.520Z,993.99
2016-02-12T05:12:49.508Z,993.97
2016-02-12T05:13:49.479Z,993.96
2016-02-12T05:14:49.451Z,993.95
2016-02-12T05:15:49.437Z,993.99
2016-02-12T05:16:49.409Z,993.93
2016-02-12T05:17:49.396Z,993.94
2016-02-12T05:18:49.352Z,993.9
2016-02-12T05:19:49.340Z,993.87
2016-02-12T05:20:49.312Z,993.88
2016-02-12T05:21:49.282Z,993.87
2016-02-12T05:22:49.271Z,993.84
2016-02-12T05:23:49.242Z,993.86
2016-02-12T05:24:49.214Z,993.83
2016-02-12T05:25:49.186Z,993.83
2016-02-12T05:26:49.172Z,993.8
2016-02-12T05:27:49.143Z,993.83
2016-02-12T05:28:49.116Z,993.82
2016-02-12T05:29:49.102Z,993.82
2016-02-12T05:30:49.074Z,993.8
2016-02-12T05:31:49.045Z,993.84
2016-02-12T05:32:49.016Z,993.83
2016-02-12T05:33:49.004Z,993.8
2016-02-12T05:34:48.975Z,993.75
2016-02-12T05:35:48.947Z,993.77
2016-02-12T05:36:48.934Z,993.78
2016-02-12T05:37:48.904Z,993.79
2016-02-12T05:38:48.877Z,993.73
2016-02-12T05:39:48.863Z,993.76
2016-02-12T05:40:48.825Z,993.73
2016-02-12T05:41:48.813Z,993.73
2016-02-12T05:42:48.784Z,993.72
2016-02-12T05:43:48.773Z,993.73
2016-02-12T05:44:48.947Z,993.73
2016-02-12T05:45:48.715Z,993.78
2016-02-12T05:46:48.672Z,993.79
2016-02-12T05:47:48.658Z,993.84
2016-02-12T05:48:48.646Z,993.79
2016-02-12T05:49:48.618Z,993.74
2016-02-12T05:50:48.589Z,993.72
2016-02-12T05:51:48.562Z,993.72
2016-02-12T05:52:48.548Z,993.73
2016-02-12T05:53:48.520Z,993.69
2016-02-12T05:54:48.490Z,993.7
2016-02-12T05:55:48.478Z,993.71
2016-02-12T05:56:48.450Z,993.72
2016-02-12T05:57:48.423Z,993.71
2016-02-12T05:58:48.395Z,993.7
2016-02-12T05:59:48.382Z,993.69
2016-02-12T06:00:48.356Z,993.67
2016-02-12T06:01:48.328Z,993.66
2016-02-12T06:02:48.300Z,993.68
2016-02-12T06:03:48.270Z,993.67
2016-02-12T06:04:48.258Z,993.71
2016-02-12T06:05:48.229Z,993.71
2016-02-12T06:06:48.217Z,993.66
2016-02-12T06:07:48.188Z,993.66
2016-02-12T06:08:48.159Z,993.71
2016-02-12T06:09:48.131Z,993.71
2016-02-12T06:10:48.106Z,993.64
2016-02-12T06:11:48.093Z,993.67
2016-02-12T06:12:48.065Z,993.66
2016-02-12T06:13:48.036Z,993.65
2016-02-12T06:14:48.007Z,993.66
2016-02-12T06:15:47.995Z,993.68
2016-02-12T06:16:47.965Z,993.67
2016-02-12T06:17:47.938Z,993.69
2016-02-12T06:18:47.926Z,993.69
2016-02-12T06:19:47.896Z,993.7
2016-02-12T06:20:47.884Z,993.69
2016-02-12T06:21:47.839Z,993.67
2016-02-12T06:22:47.827Z,993.68
2016-02-12T06:23:47.798Z,993.66
2016-02-12T06:24:47.770Z,993.63
2016-02-12T06:25:47.757Z,993.58
2016-02-12T06:26:47.729Z,993.56
2016-02-12T06:27:47.700Z,993.61
2016-02-12T06:28:47.672Z,993.56
2016-02-12T06:29:47.659Z,993.58
2016-02-12T06:30:47.630Z,993.59
2016-02-12T06:31:47.602Z,993.57
2016-02-12T06:32:47.589Z,993.56
2016-02-12T06:33:47.560Z,993.5
2016-02-12T06:34:47.534Z,993.55
2016-02-12T06:35:47.521Z,993.57
2016-02-12T06:36:47.493Z,993.58
2016-02-12T06:37:47.464Z,993.55
2016-02-12T06:38:47.436Z,993.55
2016-02-12T06:39:47.423Z,993.57
2016-02-12T06:40:47.395Z,993.54
2016-02-12T06:41:47.663Z,993.57
2016-02-12T06:42:47.337Z,993.58
2016-02-12T06:43:47.312Z,993.56
2016-02-12T06:44:47.298Z,993.59
2016-02-12T06:45:47.271Z,993.57
2016-02-12T06:46:47.242Z,993.54
2016-02-12T06:47:47.229Z,993.59
2016-02-12T06:48:47.201Z,993.59
2016-02-12T06:49:47.172Z,993.55
2016-02-12T06:50:47.143Z,993.57
2016-02-12T06:51:47.133Z,993.52
2016-02-12T06:52:47.103Z,993.54
2016-02-12T06:53:47.074Z,993.53
2016-02-12T06:54:47.062Z,993.49
2016-02-12T06:55:47.033Z,993.5
2016-02-12T06:56:47.005Z,993.46
2016-02-12T06:57:46.992Z,993.46
2016-02-12T06:58:46.963Z,993.43
2016-02-12T06:59:46.935Z,993.43
2016-02-12T07:00:46.907Z,993.44
2016-02-12T07:01:46.879Z,993.45
2016-02-12T07:02:46.866Z,993.44
2016-02-12T07:03:46.838Z,993.43
2016-02-12T07:04:46.825Z,993.43
2016-02-12T07:05:46.781Z,993.43
2016-02-12T07:06:46.768Z,993.41
2016-02-12T07:07:46.756Z,993.42
2016-02-12T07:08:46.711Z,993.4
2016-02-12T07:09:46.699Z,993.44
2016-02-12T07:10:46.670Z,993.4
2016-02-12T07:11:46.646Z,993.33
2016-02-12T07:12:46.617Z,993.32
2016-02-12T07:13:46.588Z,993.33
2016-02-12T07:14:46.577Z,993.33
2016-02-12T07:15:46.547Z,993.31
2016-02-12T07:16:46.534Z,993.29
2016-02-12T07:17:46.506Z,993.35
2016-02-12T07:18:46.477Z,993.3
2016-02-12T07:19:46.449Z,993.35
2016-02-12T07:20:46.435Z,993.32
2016-02-12T07:21:46.407Z,993.29
2016-02-12T07:22:46.379Z,993.29
2016-02-12T07:23:46.350Z,993.36
2016-02-12T07:24:46.337Z,993.32
2016-02-12T07:25:46.324Z,993.29
2016-02-12T07:26:46.279Z,993.28
2016-02-12T07:27:46.252Z,993.29
2016-02-12T07:28:46.239Z,993.3
2016-02-12T07:29:46.210Z,993.3
2016-02-12T07:30:46.181Z,993.29
2016-02-12T07:31:46.168Z,993.3
2016-02-12T07:32:46.140Z,993.31
2016-02-12T07:33:46.111Z,993.29
2016-02-12T07:34:46.099Z,993.27
2016-02-12T07:35:46.070Z,993.3
2016-02-12T07:36:46.072Z,993.3
2016-02-12T07:37:46.013Z,993.27
2016-02-12T07:38:46.001Z,993.24
2016-02-12T07:39:45.972Z,993.21
2016-02-12T07:40:45.944Z,993.21
2016-02-12T07:41:45.963Z,993.21
2016-02-12T07:42:45.902Z,993.19
2016-02-12T07:43:45.874Z,993.18
2016-02-12T07:44:45.846Z,993.18
2016-02-12T07:45:45.833Z,993.11
2016-02-12T07:46:45.805Z,993.13
2016-02-12T07:47:45.777Z,993.13
2016-02-12T07:48:45.749Z,993.16
2016-02-12T07:49:45.735Z,993.12
2016-02-12T07:50:45.708Z,993.13
2016-02-12T07:51:45.694Z,993.12
2016-02-12T07:52:45.665Z,993.12
2016-02-12T07:53:45.637Z,993.15
2016-02-12T07:54:45.608Z,993.12
2016-02-12T07:55:45.628Z,993.12
2016-02-12T07:56:45.583Z,993.12
2016-02-12T07:57:45.555Z,993.13
2016-02-12T07:58:45.542Z,993.14
2016-02-12T07:59:45.497Z,993.1
2016-02-12T08:00:45.469Z,993.03
2016-02-12T08:01:45.441Z,993.09
2016-02-12T08:02:45.583Z,993.12
2016-02-12T08:03:45.432Z,993.12
2016-02-12T08:04:45.388Z,993.13
2016-02-12T08:05:45.375Z,993.13
2016-02-12T08:06:45.331Z,993.12
2016-02-12T08:07:45.303Z,993.09
2016-02-12T08:08:45.274Z,993.1
2016-02-12T08:09:45.261Z,993.09
2016-02-12T08:10:45.279Z,993.09
2016-02-12T08:11:45.204Z,993.07
2016-02-12T08:12:45.176Z,993.06
2016-02-12T08:13:45.151Z,993.05
2016-02-12T08:14:45.169Z,993.05
2016-02-12T08:15:45.157Z,993.09
2016-02-12T08:16:45.113Z,993.09
2016-02-12T08:17:45.053Z,993.09
2016-02-12T08:18:45.086Z,993.06
2016-02-12T08:19:45.011Z,993.05
2016-02-12T08:20:45.016Z,993.07
2016-02-12T08:21:45.003Z,993.05
2016-02-12T08:22:44.974Z,993.06
2016-02-12T08:23:44.933Z,993.05
2016-02-12T08:24:44.890Z,993.05
2016-02-12T08:25:44.876Z,993.04
2016-02-12T08:26:44.848Z,992.99
2016-02-12T08:27:44.865Z,993.01
2016-02-12T08:28:44.789Z,992.99
2016-02-12T08:29:44.777Z,992.98
2016-02-12T08:30:44.776Z,992.95
2016-02-12T08:31:44.715Z,992.91
2016-02-12T08:32:44.703Z,992.9
2016-02-12T08:33:44.673Z,992.88
2016-02-12T08:34:44.724Z,992.84
2016-02-12T08:35:44.664Z,992.88
2016-02-12T08:36:44.635Z,992.89
2016-02-12T08:37:44.592Z,992.92
2016-02-12T08:38:44.578Z,992.9
2016-02-12T08:39:44.597Z,992.89
2016-02-12T08:40:44.506Z,992.85
2016-02-12T08:41:44.497Z,992.86
2016-02-12T08:42:44.484Z,992.86
2016-02-12T08:43:44.442Z,992.85
2016-02-12T08:44:44.413Z,992.84
2016-02-12T08:45:44.385Z,992.81
2016-02-12T08:46:44.372Z,992.83
2016-02-12T08:47:44.343Z,992.83
2016-02-12T08:48:44.316Z,992.83
2016-02-12T08:49:44.289Z,992.85
2016-02-12T08:50:44.276Z,992.79
2016-02-12T08:51:44.247Z,992.71
2016-02-12T08:52:44.218Z,992.79
2016-02-12T08:53:44.206Z,992.77
2016-02-12T08:54:44.177Z,992.75
2016-02-12T08:55:44.180Z,992.73
2016-02-12T08:56:44.136Z,992.72
2016-02-12T08:57:44.138Z,992.75
2016-02-12T08:58:44.079Z,992.69
2016-02-12T08:59:44.051Z,992.67
2016-02-12T09:00:44.053Z,992.65
2016-02-12T09:01:44.009Z,992.64
2016-02-12T09:02:43.981Z,992.59
2016-02-12T09:03:43.967Z,992.6
2016-02-12T09:04:43.959Z,992.52
2016-02-12T09:05:43.962Z,992.56
2016-02-12T09:06:43.919Z,992.54
2016-02-12T09:07:43.874Z,992.52
2016-02-12T09:08:43.877Z,992.56
2016-02-12T09:09:43.817Z,992.55
2016-02-12T09:10:43.804Z,992.54
2016-02-12T09:11:43.775Z,992.55
2016-02-12T09:12:43.750Z,992.5
2016-02-12T09:13:43.721Z,992.48
2016-02-12T09:14:43.708Z,992.47
2016-02-12T09:15:43.681Z,992.47
2016-02-12T09:16:43.653Z,992.46
2016-02-12T09:17:43.623Z,992.45
2016-02-12T09:18:43.610Z,992.42
2016-02-12T09:19:43.582Z,992.46
2016-02-12T09:20:43.570Z,992.46
2016-02-12T09:21:43.542Z,992.42
2016-02-12T09:22:43.513Z,992.44
2016-02-12T09:23:43.500Z,992.4
2016-02-12T09:24:43.458Z,992.43
2016-02-12T09:25:43.445Z,992.4
2016-02-12T09:26:43.417Z,992.39
2016-02-12T09:27:43.389Z,992.4
2016-02-12T09:28:43.376Z,992.37
2016-02-12T09:29:43.344Z,992.39
2016-02-12T09:30:43.303Z,992.39
2016-02-12T09:31:43.433Z,992.36
2016-02-12T09:32:43.237Z,992.33
2016-02-12T09:33:43.201Z,992.35
2016-02-12T09:34:43.161Z,992.32
2016-02-12T09:35:43.144Z,992.3
2016-02-12T09:36:43.111Z,992.32
2016-02-12T09:37:43.077Z,992.27
2016-02-12T09:38:43.044Z,992.25
2016-02-12T09:39:43.028Z,992.22
2016-02-12T09:40:42.997Z,992.23
2016-02-12T09:41:42.999Z,992.19
2016-02-12T09:42:42.954Z,992.19
2016-02-12T09:43:42.924Z,992.21
2016-02-12T09:44:42.894Z,992.15
2016-02-12T09:45:42.866Z,992.17
2016-02-12T09:46:42.851Z,992.2
2016-02-12T09:47:42.822Z,992.15
2016-02-12T09:48:42.793Z,992.2
2016-02-12T09:49:42.779Z,992.14
2016-02-12T09:50:42.751Z,992.17
2016-02-12T09:51:42.723Z,992.12
2016-02-12T09:52:42.696Z,992.13
2016-02-12T09:53:42.668Z,992.07
2016-02-12T09:54:42.656Z,992.06
2016-02-12T09:55:42.627Z,992.05
2016-02-12T09:56:42.599Z,992.04
2016-02-12T09:57:42.585Z,992.07
2016-02-12T09:58:42.556Z,992.15
2016-02-12T09:59:42.528Z,992.07
2016-02-12T10:00:42.515Z,992.1
2016-02-12T10:01:42.565Z,992.11
2016-02-12T10:02:40.081Z,992.07
2016-02-12T10:03:42.428Z,992.08
2016-02-12T10:04:42.415Z,992.11
2016-02-12T10:05:42.388Z,992.02
2016-02-12T10:06:42.374Z,992.1
2016-02-12T10:07:42.346Z,992.04
2016-02-12T10:08:42.318Z,992.05
2016-02-12T10:09:42.288Z,992.1
2016-02-12T10:10:42.262Z,992.03
2016-02-12T10:11:42.250Z,992.02
2016-02-12T10:12:42.221Z,992.02
2016-02-12T10:13:42.197Z,992
2016-02-12T10:14:42.169Z,992.05
2016-02-12T10:15:42.155Z,991.98
2016-02-12T10:16:42.127Z,991.99
2016-02-12T10:17:42.098Z,991.96
2016-02-12T10:18:42.087Z,991.93
2016-02-12T10:19:42.058Z,991.94
2016-02-12T10:20:42.029Z,991.94
2016-02-12T10:21:42.016Z,991.92
2016-02-12T10:22:41.987Z,991.84
2016-02-12T10:23:41.959Z,991.82
2016-02-12T10:24:41.931Z,991.82
2016-02-12T10:25:41.918Z,991.83
2016-02-12T10:26:41.889Z,991.83
2016-02-12T10:27:41.863Z,991.81
2016-02-12T10:28:42.084Z,991.87
2016-02-12T10:29:41.821Z,991.84
2016-02-12T10:30:41.793Z,991.9
2016-02-12T10:31:41.763Z,991.83
2016-02-12T10:32:41.751Z,991.79
2016-02-12T10:33:41.723Z,991.79
2016-02-12T10:34:41.693Z,991.79
2016-02-12T10:35:41.682Z,991.74
2016-02-12T10:36:41.653Z,991.76
2016-02-12T10:37:41.625Z,991.77
2016-02-12T10:38:41.598Z,991.82
2016-02-12T10:39:41.585Z,991.82
2016-02-12T10:40:41.556Z,991.76
2016-02-12T10:41:41.528Z,991.79
2016-02-12T10:42:41.515Z,991.8
2016-02-12T10:43:41.492Z,991.79
2016-02-12T10:44:41.462Z,991.78
2016-02-12T10:45:41.434Z,991.71
2016-02-12T10:46:41.421Z,991.73
2016-02-12T10:47:41.384Z,991.7
2016-02-12T10:48:41.370Z,991.66
2016-02-12T10:49:41.341Z,991.65
2016-02-12T10:50:41.313Z,991.62
2016-02-12T10:51:41.300Z,991.6
2016-02-12T10:52:41.272Z,991.54
2016-02-12T10:53:41.259Z,991.54
2016-02-12T10:54:41.230Z,991.5
2016-02-12T10:55:41.201Z,991.46
2016-02-12T10:56:41.173Z,991.51
2016-02-12T10:57:41.160Z,991.5
2016-02-12T10:58:41.131Z,991.5
2016-02-12T10:59:41.119Z,991.48
2016-02-12T11:00:41.089Z,991.5
2016-02-12T11:01:41.061Z,991.49
2016-02-12T11:02:41.049Z,991.49
2016-02-12T11:03:41.019Z,991.47
2016-02-12T11:04:40.993Z,991.44
2016-02-12T11:05:40.964Z,991.39
2016-02-12T11:06:40.950Z,991.4
2016-02-12T11:07:40.922Z,991.34
2016-02-12T11:08:40.893Z,991.37
2016-02-12T11:09:40.864Z,991.32
2016-02-12T11:10:40.852Z,991.32
2016-02-12T11:11:40.824Z,991.33
2016-02-12T11:12:40.794Z,991.31
2016-02-12T11:13:40.784Z,991.35
2016-02-12T11:14:40.757Z,991.29
2016-02-12T11:15:40.728Z,991.3
2016-02-12T11:16:40.716Z,991.31
2016-02-12T11:17:40.687Z,991.29
2016-02-12T11:18:40.659Z,991.3
2016-02-12T11:19:40.630Z,991.27
2016-02-12T11:20:40.618Z,991.25
2016-02-12T11:21:40.590Z,991.24
2016-02-12T11:22:40.577Z,991.24
2016-02-12T11:23:40.549Z,991.24
2016-02-12T11:24:40.520Z,991.18
2016-02-12T11:25:40.773Z,991.2
2016-02-12T11:26:40.479Z,991.16
2016-02-12T11:27:40.465Z,991.14
2016-02-12T11:28:40.437Z,991.18
2016-02-12T11:29:40.413Z,991.11
2016-02-12T11:30:40.384Z,991.12
2016-02-12T11:31:40.356Z,991.14
2016-02-12T11:32:40.343Z,991.14
2016-02-12T11:33:40.314Z,991.14
2016-02-12T11:34:40.286Z,991.12
2016-02-12T11:35:40.273Z,991.09
2016-02-12T11:36:40.244Z,991.09
2016-02-12T11:37:40.216Z,991.09
2016-02-12T11:38:40.203Z,991.09
2016-02-12T11:39:40.177Z,991
2016-02-12T11:40:40.164Z,991.01
2016-02-12T11:41:40.136Z,990.97
2016-02-12T11:42:40.108Z,990.96
2016-02-12T11:43:40.078Z,990.89
2016-02-12T11:44:40.054Z,990.87
2016-02-12T11:45:40.042Z,990.84
2016-02-12T11:46:40.045Z,990.88
2016-02-12T11:47:39.985Z,990.83
2016-02-12T11:48:39.972Z,990.79
2016-02-12T11:49:39.943Z,990.8
2016-02-12T11:50:39.916Z,990.77
2016-02-12T11:51:39.903Z,990.74
2016-02-12T11:52:39.874Z,990.8
2016-02-12T11:53:39.861Z,990.73
2016-02-12T11:54:39.833Z,990.75
2016-02-12T11:55:39.820Z,990.78
2016-02-12T11:56:39.793Z,990.69
2016-02-12T11:57:39.781Z,990.67
2016-02-12T11:58:39.737Z,990.64
2016-02-12T11:59:39.725Z,990.62
2016-02-12T12:00:39.697Z,990.62
2016-02-12T12:01:39.684Z,990.61
2016-02-12T12:02:39.656Z,990.59
2016-02-12T12:03:39.642Z,990.56
2016-02-12T12:04:39.614Z,990.53
2016-02-12T12:05:39.587Z,990.53
2016-02-12T12:06:39.589Z,990.53
2016-02-12T12:07:39.530Z,990.51
2016-02-12T12:08:39.533Z,990.54
2016-02-12T12:09:39.489Z,990.52
2016-02-12T12:10:39.476Z,990.51
2016-02-12T12:11:39.447Z,990.46
2016-02-12T12:12:39.418Z,990.5
2016-02-12T12:13:39.406Z,990.48
2016-02-12T12:14:39.377Z,990.42
2016-02-12T12:15:39.365Z,990.44
2016-02-12T12:16:39.338Z,990.45
2016-02-12T12:17:39.309Z,990.38
2016-02-12T12:18:39.297Z,990.39
2016-02-12T12:19:39.268Z,990.35
2016-02-12T12:20:39.240Z,990.37
2016-02-12T12:21:39.258Z,990.35
2016-02-12T12:22:39.198Z,990.38
2016-02-12T12:23:39.186Z,990.36
2016-02-12T12:24:39.156Z,990.33
2016-02-12T12:25:39.129Z,990.31
2016-02-12T12:26:39.115Z,990.3
2016-02-12T12:27:39.087Z,990.32
2016-02-12T12:28:39.074Z,990.32
2016-02-12T12:29:39.045Z,990.3
2016-02-12T12:30:39.034Z,990.3
2016-02-12T12:31:39.005Z,990.29